Terminal Aerodrome Forecast
Issued by NWS

Home | Current Version | Previous Version | Text Only | Print | Product List | Glossary On
Versions: 1 2 3 4 5 6 7 8 9 10 11 12 13 14 15 16 17 18 19 20 21 22 23 24 25 26 27
000
FTUS43 KDDC 271905 AAA
TAFGCK
TAF AMD
KGCK 271905Z 2719/2818 21006KT P6SM SCT090
     FM280000 12010KT P6SM OVC100
     FM280300 13006KT P6SM VCTS OVC100CB
      TEMPO 2803/2807 VRB15G35KT -TSRA
     FM280700 09007KT P6SM VCSH BKN100=

USA.gov is the U.S. government's official web portal to all federal, state and local government web resources and services.